Time;durP1;ratioP1;P1;durP2;ratioP2;P2;SDS_P1;SDS_P2;PMS_P1;PMS_P2;Temp;Humidity;BMP_temperature;BMP_pressure;BME280_temperature;BME280_humidity;BME280_pressure;Samples;Min_cycle;Max_cycle;Signal;HPM_P1;HPM_P2
2023/08/20 00:04:28;;;;;;;;;;;21.30;99.90;;;;;;12346236;28;20393;-84
2023/08/20 00:10:30;;;;;;;;;;;21.30;99.90;;;;;;12357360;28;19991;-84
2023/08/20 00:16:32;;;;;;;;;;;21.30;99.90;;;;;;12343181;28;19988;-85
2023/08/20 00:22:34;;;;;;;;;;;21.40;99.90;;;;;;12348273;28;20293;-85
2023/08/20 00:28:38;;;;;;;;;;;21.50;99.90;;;;;;12358129;28;19926;-85
2023/08/20 00:34:40;;;;;;;;;;;21.40;99.90;;;;;;12355236;28;19937;-85
2023/08/20 00:40:42;;;;;;;;;;;21.40;99.90;;;;;;12347172;28;19984;-85
2023/08/20 00:46:44;;;;;;;;;;;21.40;99.90;;;;;;12352592;28;19964;-84
2023/08/20 00:52:46;;;;;;;;;;;21.40;99.90;;;;;;12355428;28;19926;-84
2023/08/20 00:58:48;;;;;;;;;;;21.30;99.90;;;;;;12354427;28;19926;-84
2023/08/20 01:04:50;;;;;;;;;;;21.00;99.90;;;;;;12341896;28;19926;-85
2023/08/20 01:11:03;;;;;;;;;;;20.90;99.90;;;;;;12334219;28;19934;-85
2023/08/20 01:17:05;;;;;;;;;;;20.60;99.90;;;;;;12360412;28;19926;-85
2023/08/20 01:23:19;;;;;;;;;;;20.60;99.90;;;;;;12340762;28;19930;-85
2023/08/20 01:29:21;;;;;;;;;;;20.50;99.90;;;;;;12349974;28;19969;-85
2023/08/20 01:35:24;;;;;;;;;;;20.50;99.90;;;;;;12356203;28;20072;-85
2023/08/20 01:41:26;;;;;;;;;;;20.40;99.90;;;;;;12361972;28;19925;-85
2023/08/20 01:47:27;;;;;;;;;;;20.20;99.90;;;;;;12356857;28;19969;-85
2023/08/20 01:53:29;;;;;;;;;;;20.10;99.90;;;;;;12382573;28;20013;-85
2023/08/20 01:59:31;;;;;;;;;;;19.90;99.90;;;;;;12358331;28;20020;-86
2023/08/20 02:05:33;;;;;;;;;;;19.70;99.90;;;;;;12373425;28;19933;-85
2023/08/20 02:11:35;;;;;;;;;;;19.60;99.90;;;;;;12365425;28;19926;-86
2023/08/20 02:17:37;;;;;;;;;;;19.50;99.90;;;;;;12354222;28;20278;-84
2023/08/20 02:23:39;;;;;;;;;;;19.30;99.90;;;;;;12353759;28;19930;-85
2023/08/20 02:29:41;;;;;;;;;;;19.30;99.90;;;;;;12361520;28;19930;-85
2023/08/20 02:35:43;;;;;;;;;;;19.30;99.90;;;;;;12376627;28;20080;-85
2023/08/20 02:41:45;;;;;;;;;;;19.40;99.90;;;;;;12355643;28;19980;-84
2023/08/20 02:47:46;;;;;;;;;;;19.40;99.90;;;;;;12360597;28;19926;-84
2023/08/20 02:53:49;;;;;;;;;;;19.50;99.90;;;;;;12356862;28;19934;-84
2023/08/20 02:59:50;;;;;;;;;;;19.60;99.90;;;;;;12359648;28;19933;-84
2023/08/20 03:05:52;;;;;;;;;;;19.20;99.90;;;;;;12347753;28;19930;-84
2023/08/20 03:11:54;;;;;;;;;;;18.80;99.90;;;;;;12361572;28;19926;-84
2023/08/20 03:17:55;;;;;;;;;;;19.10;99.90;;;;;;12337500;28;20420;-84
2023/08/20 03:23:57;;;;;;;;;;;19.40;99.90;;;;;;12354417;28;20279;-84
2023/08/20 03:29:59;;;;;;;;;;;19.40;99.90;;;;;;12354950;28;19965;-85
2023/08/20 03:36:01;;;;;;;;;;;19.50;99.90;;;;;;12377447;28;19968;-85
2023/08/20 03:42:03;;;;;;;;;;;19.10;99.90;;;;;;12346845;28;19930;-85
2023/08/20 03:48:05;;;;;;;;;;;19.10;99.90;;;;;;12353295;28;20028;-85
2023/08/20 03:54:06;;;;;;;;;;;19.10;99.90;;;;;;12358250;28;19985;-85
2023/08/20 04:00:09;;;;;;;;;;;19.10;99.90;;;;;;12338950;28;20065;-84
2023/08/20 04:06:11;;;;;;;;;;;19.10;99.90;;;;;;12347717;28;19930;-84
2023/08/20 04:12:13;;;;;;;;;;;18.80;99.90;;;;;;12353328;28;20053;-84
2023/08/20 04:18:14;;;;;;;;;;;18.90;99.90;;;;;;12345537;28;19981;-84
2023/08/20 04:24:16;;;;;;;;;;;19.00;99.90;;;;;;12340438;28;19934;-84
2023/08/20 04:30:18;;;;;;;;;;;19.20;99.90;;;;;;12354383;28;20021;-84
2023/08/20 04:36:20;;;;;;;;;;;19.10;99.90;;;;;;12357808;28;20029;-84
2023/08/20 04:42:22;;;;;;;;;;;19.20;99.90;;;;;;12365090;28;19965;-84
2023/08/20 04:48:24;;;;;;;;;;;19.20;99.90;;;;;;12361255;28;19971;-83
2023/08/20 04:54:26;;;;;;;;;;;19.30;99.90;;;;;;12330367;28;19933;-83
2023/08/20 05:00:28;;;;;;;;;;;19.50;99.90;;;;;;12347751;28;19941;-85
2023/08/20 05:06:30;;;;;;;;;;;20.00;99.90;;;;;;12361269;28;19977;-86
2023/08/20 05:12:31;;;;;;;;;;;20.80;99.90;;;;;;12369200;28;19930;-86
2023/08/20 05:18:34;;;;;;;;;;;20.50;99.90;;;;;;12382870;28;20315;-86
2023/08/20 05:24:35;;;;;;;;;;;20.40;99.90;;;;;;12369854;28;20382;-86
2023/08/20 05:30:37;;;;;;;;;;;20.10;99.90;;;;;;12368469;28;20028;-86
2023/08/20 05:36:39;;;;;;;;;;;19.70;99.90;;;;;;12363456;28;19991;-86
2023/08/20 05:42:43;;;;;;;;;;;19.80;99.90;;;;;;12362297;28;20385;-86
2023/08/20 05:48:45;;;;;;;;;;;19.90;99.90;;;;;;12365444;28;19941;-86
2023/08/20 05:54:47;;;;;;;;;;;20.20;99.90;;;;;;12370886;28;19937;-86
2023/08/20 06:00:49;;;;;;;;;;;20.40;99.90;;;;;;12390379;28;19933;-86
2023/08/20 06:06:50;;;;;;;;;;;20.40;99.90;;;;;;12357756;28;19930;-86
2023/08/20 06:12:52;;;;;;;;;;;20.70;99.90;;;;;;12348580;28;20334;-85
2023/08/20 06:18:54;;;;;;;;;;;20.70;99.90;;;;;;12343035;28;20060;-86
2023/08/20 06:24:57;;;;;;;;;;;20.80;99.90;;;;;;12359635;28;19953;-85
2023/08/20 06:30:59;;;;;;;;;;;20.90;99.90;;;;;;12377383;28;19926;-85
2023/08/20 06:37:01;;;;;;;;;;;21.20;99.90;;;;;;12362201;28;19980;-85
2023/08/20 06:43:03;;;;;;;;;;;21.10;99.90;;;;;;12366880;28;19927;-85
2023/08/20 06:49:05;;;;;;;;;;;21.50;99.90;;;;;;12362440;28;19944;-85
2023/08/20 06:55:07;;;;;;;;;;;21.50;99.90;;;;;;12351991;28;19973;-85
2023/08/20 07:01:09;;;;;;;;;;;21.50;99.90;;;;;;12354618;28;19933;-86
2023/08/20 07:07:11;;;;;;;;;;;21.70;99.90;;;;;;12346695;28;19926;-87
2023/08/20 07:13:13;;;;;;;;;;;21.90;99.90;;;;;;12344633;28;20445;-86
2023/08/20 07:19:15;;;;;;;;;;;22.00;99.90;;;;;;12361124;28;19952;-85
2023/08/20 07:25:16;;;;;;;;;;;22.00;99.90;;;;;;12347871;28;19989;-86
2023/08/20 07:31:19;;;;;;;;;;;22.20;99.90;;;;;;12359303;28;19934;-88
2023/08/20 07:37:20;;;;;;;;;;;22.20;99.90;;;;;;12357049;28;19937;-87
2023/08/20 07:43:24;;;;;;;;;;;22.30;99.90;;;;;;12361549;28;19930;-84
2023/08/20 07:49:25;;;;;;;;;;;22.40;99.90;;;;;;12353642;28;19926;-89
2023/08/20 07:55:27;;;;;;;;;;;22.50;99.90;;;;;;12343418;28;20016;-89
2023/08/20 08:01:29;;;;;;;;;;;22.60;99.90;;;;;;12359649;28;19977;-88
2023/08/20 08:07:31;;;;;;;;;;;22.70;99.90;;;;;;12351339;28;19926;-83
2023/08/20 08:13:34;;;;;;;;;;;22.80;99.90;;;;;;12349833;28;19934;-85
2023/08/20 08:19:36;;;;;;;;;;;22.90;99.90;;;;;;12370481;28;19926;-85
2023/08/20 08:25:37;;;;;;;;;;;23.00;99.90;;;;;;12350840;28;19926;-89
2023/08/20 08:31:40;;;;;;;;;;;23.20;99.90;;;;;;12343242;28;19940;-84
2023/08/20 08:37:41;;;;;;;;;;;23.40;99.90;;;;;;12341606;28;19971;-86
2023/08/20 08:43:43;;;;;;;;;;;23.50;99.90;;;;;;12372529;28;19972;-87
2023/08/20 08:49:46;;;;;;;;;;;23.70;99.90;;;;;;12356261;28;19933;-88
2023/08/20 08:55:48;;;;;;;;;;;23.90;99.90;;;;;;12342269;28;20026;-88
2023/08/20 09:01:50;;;;;;;;;;;24.20;99.90;;;;;;12362811;28;20390;-88
2023/08/20 09:07:55;;;;;;;;;;;24.40;99.90;;;;;;12363303;28;19926;-88
2023/08/20 09:13:57;;;;;;;;;;;24.80;99.90;;;;;;12391365;28;19934;-87
2023/08/20 09:20:02;;;;;;;;;;;25.00;99.90;;;;;;12405862;28;19938;-87
2023/08/20 09:26:04;;;;;;;;;;;25.10;99.90;;;;;;12405849;28;19934;-87
2023/08/20 09:32:06;;;;;;;;;;;25.10;99.90;;;;;;12364504;28;19934;-87
2023/08/20 09:38:08;;;;;;;;;;;25.40;99.90;;;;;;12376562;28;19973;-87
2023/08/20 09:44:11;;;;;;;;;;;25.90;99.90;;;;;;12360839;28;20294;-88
2023/08/20 09:50:13;;;;;;;;;;;26.50;99.90;;;;;;12353664;28;19981;-87
2023/08/20 09:56:19;;;;;;;;;;;26.70;99.90;;;;;;12360776;28;20689;-86
2023/08/20 10:02:21;;;;;;;;;;;26.80;99.90;;;;;;12362624;28;19933;-87
2023/08/20 10:08:23;;;;;;;;;;;27.00;99.90;;;;;;12350777;28;20024;-87
2023/08/20 10:14:24;;;;;;;;;;;27.20;99.90;;;;;;12371160;28;19984;-86
2023/08/20 10:20:28;;;;;;;;;;;26.90;99.90;;;;;;12365340;28;19968;-84
2023/08/20 10:26:32;;;;;;;;;;;27.20;99.90;;;;;;12359464;28;19989;-87
2023/08/20 10:32:48;;;;;;;;;;;27.70;99.90;;;;;;12360293;28;20486;-87
2023/08/20 10:38:50;;;;;;;;;;;27.60;99.90;;;;;;12352682;28;19940;-87
2023/08/20 10:44:56;;;;;;;;;;;27.30;99.90;;;;;;12371175;28;20025;-88
2023/08/20 10:50:58;;;;;;;;;;;26.80;99.90;;;;;;12370340;28;20302;-86
2023/08/20 10:57:00;;;;;;;;;;;26.80;99.90;;;;;;12371489;28;19926;-88
2023/08/20 11:03:02;;;;;;;;;;;26.70;99.90;;;;;;12348390;28;19977;-87
2023/08/20 11:09:05;;;;;;;;;;;27.30;99.90;;;;;;12362785;28;19930;-87
2023/08/20 11:15:07;;;;;;;;;;;27.90;99.90;;;;;;12357623;28;19926;-85
2023/08/20 11:21:10;;;;;;;;;;;28.30;99.90;;;;;;12366363;28;19930;-85
2023/08/20 11:27:12;;;;;;;;;;;27.70;99.90;;;;;;12351505;28;19926;-87
2023/08/20 11:33:14;;;;;;;;;;;26.70;99.90;;;;;;12359931;28;20322;-87
2023/08/20 11:39:16;;;;;;;;;;;26.50;99.90;;;;;;12366322;28;19926;-85
2023/08/20 11:45:18;;;;;;;;;;;26.20;99.90;;;;;;12355643;28;19933;-85
2023/08/20 11:51:20;;;;;;;;;;;25.80;99.90;;;;;;12358746;28;19969;-86
2023/08/20 11:57:22;;;;;;;;;;;26.30;99.90;;;;;;12354142;28;19926;-86
2023/08/20 12:03:28;;;;;;;;;;;27.30;99.90;;;;;;12351704;28;19946;-88
2023/08/20 12:09:31;;;;;;;;;;;27.60;99.90;;;;;;12359986;28;19934;-86
2023/08/20 12:15:33;;;;;;;;;;;27.90;99.90;;;;;;12362296;28;19929;-88
2023/08/20 12:21:35;;;;;;;;;;;28.10;99.90;;;;;;12375562;28;19930;-87
2023/08/20 12:27:36;;;;;;;;;;;28.00;99.90;;;;;;12374191;28;19929;-86
2023/08/20 12:33:38;;;;;;;;;;;27.90;99.90;;;;;;12362435;28;19937;-86
2023/08/20 12:39:40;;;;;;;;;;;27.20;99.90;;;;;;12372587;28;20305;-85
2023/08/20 12:45:42;;;;;;;;;;;26.50;99.90;;;;;;12360888;28;19984;-85
2023/08/20 12:51:44;;;;;;;;;;;26.20;99.90;;;;;;12361271;28;20350;-85
2023/08/20 12:57:59;;;;;;;;;;;26.80;99.90;;;;;;12359299;28;19961;-85
2023/08/20 13:04:00;;;;;;;;;;;27.30;99.90;;;;;;12378631;28;19963;-84
2023/08/20 13:10:03;;;;;;;;;;;27.00;99.90;;;;;;12361678;28;20064;-85
2023/08/20 13:16:05;;;;;;;;;;;27.10;99.90;;;;;;12415201;28;19933;-85
2023/08/20 13:22:07;;;;;;;;;;;27.00;99.90;;;;;;12416960;28;19952;-86
2023/08/20 13:28:08;;;;;;;;;;;27.40;99.90;;;;;;12342759;28;19938;-85
2023/08/20 13:34:10;;;;;;;;;;;27.80;99.90;;;;;;12350785;28;19910;-85
2023/08/20 13:40:15;;;;;;;;;;;27.70;99.90;;;;;;12337479;28;19921;-85
2023/08/20 13:46:17;;;;;;;;;;;27.40;99.90;;;;;;12326204;28;19986;-85
2023/08/20 13:52:19;;;;;;;;;;;27.10;99.90;;;;;;12303356;28;19934;-84
2023/08/20 13:58:21;;;;;;;;;;;26.90;99.90;;;;;;12311743;28;20564;-85
2023/08/20 14:04:22;;;;;;;;;;;27.00;99.90;;;;;;12300396;28;20047;-85
2023/08/20 14:10:24;;;;;;;;;;;27.20;99.90;;;;;;12282278;28;19934;-85
2023/08/20 14:16:26;;;;;;;;;;;27.30;99.90;;;;;;12281271;28;19926;-85
2023/08/20 14:22:28;;;;;;;;;;;27.30;99.90;;;;;;12278425;28;19926;-85
2023/08/20 14:28:30;;;;;;;;;;;27.10;99.90;;;;;;12358128;28;19926;-85
2023/08/20 14:34:31;;;;;;;;;;;26.60;99.90;;;;;;12357338;28;20502;-85
2023/08/20 14:40:36;;;;;;;;;;;26.60;99.90;;;;;;12357766;28;19930;-85
2023/08/20 14:46:38;;;;;;;;;;;26.50;99.90;;;;;;12350279;28;21131;-85
2023/08/20 14:52:40;;;;;;;;;;;26.30;99.90;;;;;;12350842;28;20390;-85
2023/08/20 14:58:42;;;;;;;;;;;26.20;99.90;;;;;;12364429;28;19933;-84
2023/08/20 15:04:44;;;;;;;;;;;26.10;99.90;;;;;;12351290;28;19938;-86
2023/08/20 15:10:55;;;;;;;;;;;26.00;99.90;;;;;;12346075;28;19930;-85
2023/08/20 15:16:57;;;;;;;;;;;26.00;99.90;;;;;;12352293;28;20020;-84
2023/08/20 15:22:59;;;;;;;;;;;25.80;99.90;;;;;;12353853;28;20392;-84
2023/08/20 15:29:01;;;;;;;;;;;25.70;99.90;;;;;;12355274;28;19926;-84
2023/08/20 15:35:05;;;;;;;;;;;25.60;99.90;;;;;;12380951;28;20068;-84
2023/08/20 15:41:07;;;;;;;;;;;25.80;99.90;;;;;;12344587;28;19926;-84
2023/08/20 15:47:09;;;;;;;;;;;25.90;99.90;;;;;;12335889;28;19929;-83
2023/08/20 15:53:11;;;;;;;;;;;26.10;99.90;;;;;;12354739;28;20260;-83
2023/08/20 15:59:13;;;;;;;;;;;26.50;99.90;;;;;;12378947;28;20012;-84
2023/08/20 16:05:15;;;;;;;;;;;26.80;99.90;;;;;;12361152;28;19956;-84
2023/08/20 16:11:17;;;;;;;;;;;26.50;99.90;;;;;;12349394;28;19930;-83
2023/08/20 16:17:19;;;;;;;;;;;26.60;99.90;;;;;;12366250;28;19937;-84
2023/08/20 16:23:20;;;;;;;;;;;26.40;99.90;;;;;;12376871;28;19941;-82
2023/08/20 16:29:24;;;;;;;;;;;26.50;99.90;;;;;;12369830;28;20294;-84
2023/08/20 16:35:26;;;;;;;;;;;26.80;99.90;;;;;;12366001;28;19929;-83
2023/08/20 16:41:28;;;;;;;;;;;26.40;99.90;;;;;;12361541;28;20013;-84
2023/08/20 16:47:30;;;;;;;;;;;26.50;99.90;;;;;;12332596;28;19931;-83
2023/08/20 16:53:32;;;;;;;;;;;26.90;99.90;;;;;;12359221;28;19930;-84
2023/08/20 16:59:36;;;;;;;;;;;26.50;99.90;;;;;;12369285;28;19973;-83
2023/08/20 17:05:38;;;;;;;;;;;26.50;99.90;;;;;;12344585;28;19927;-83
2023/08/20 17:11:40;;;;;;;;;;;26.40;99.90;;;;;;12352545;28;19925;-83
2023/08/20 17:17:42;;;;;;;;;;;26.50;99.90;;;;;;12344968;28;19972;-84
2023/08/20 17:23:45;;;;;;;;;;;26.60;99.90;;;;;;12346584;28;20045;-84
2023/08/20 17:29:48;;;;;;;;;;;26.40;99.90;;;;;;12350924;28;19926;-84
2023/08/20 17:35:50;;;;;;;;;;;26.40;99.90;;;;;;12357458;28;19972;-84
2023/08/20 17:41:51;;;;;;;;;;;26.20;99.90;;;;;;12374770;28;19926;-83
2023/08/20 17:47:53;;;;;;;;;;;25.70;99.90;;;;;;12353227;28;20057;-83
2023/08/20 17:53:56;;;;;;;;;;;25.20;99.90;;;;;;12346684;28;20298;-83
2023/08/20 17:59:57;;;;;;;;;;;25.20;99.90;;;;;;12380800;28;20400;-83
2023/08/20 18:06:00;;;;;;;;;;;25.00;99.90;;;;;;12376582;28;19925;-84
2023/08/20 18:12:02;;;;;;;;;;;24.90;99.90;;;;;;12347861;28;20390;-83
2023/08/20 18:18:04;;;;;;;;;;;24.80;99.90;;;;;;12353776;28;19933;-83
2023/08/20 18:24:06;;;;;;;;;;;24.60;99.90;;;;;;12348974;28;19934;-83
2023/08/20 18:30:11;;;;;;;;;;;24.40;99.90;;;;;;12368126;28;20020;-83
2023/08/20 18:36:12;;;;;;;;;;;24.30;99.90;;;;;;12364542;28;19952;-83
2023/08/20 18:42:14;;;;;;;;;;;24.20;99.90;;;;;;12367918;28;19989;-82
2023/08/20 18:48:16;;;;;;;;;;;24.10;99.90;;;;;;12376834;28;19966;-83
2023/08/20 18:54:18;;;;;;;;;;;24.10;99.90;;;;;;12369343;28;20384;-84
2023/08/20 19:00:22;;;;;;;;;;;23.90;99.90;;;;;;12376487;28;19933;-83
2023/08/20 19:06:23;;;;;;;;;;;23.90;99.90;;;;;;12427026;28;19930;-83
2023/08/20 19:12:25;;;;;;;;;;;24.10;99.90;;;;;;12404832;28;19926;-84
2023/08/20 19:18:27;;;;;;;;;;;24.00;99.90;;;;;;12380503;28;19934;-83
2023/08/20 19:24:29;;;;;;;;;;;23.90;99.90;;;;;;12346495;28;19993;-83
2023/08/20 19:30:30;;;;;;;;;;;23.80;99.90;;;;;;12351858;28;20401;-82
2023/08/20 19:36:32;;;;;;;;;;;23.30;99.90;;;;;;12376783;28;19958;-83
2023/08/20 19:42:34;;;;;;;;;;;23.40;99.90;;;;;;12364820;28;19963;-83
2023/08/20 19:48:36;;;;;;;;;;;23.30;99.90;;;;;;12368296;28;19938;-83
2023/08/20 19:54:38;;;;;;;;;;;23.00;99.90;;;;;;12340932;28;20375;-83
2023/08/20 20:00:42;;;;;;;;;;;23.00;99.90;;;;;;12342492;28;20211;-83
2023/08/20 20:06:43;;;;;;;;;;;23.10;99.90;;;;;;12347556;28;20409;-83
2023/08/20 20:12:45;;;;;;;;;;;23.10;99.90;;;;;;12343895;28;19926;-83
2023/08/20 20:18:47;;;;;;;;;;;23.10;99.90;;;;;;12353877;28;19968;-85
2023/08/20 20:24:49;;;;;;;;;;;23.00;99.90;;;;;;12344099;28;19949;-84
2023/08/20 20:30:51;;;;;;;;;;;22.90;99.90;;;;;;12367886;28;19926;-84
2023/08/20 20:36:53;;;;;;;;;;;22.30;99.90;;;;;;12368706;28;19926;-84
2023/08/20 20:42:54;;;;;;;;;;;22.40;99.90;;;;;;12359953;28;19986;-84
2023/08/20 20:48:56;;;;;;;;;;;22.60;99.90;;;;;;12370879;28;20146;-84
2023/08/20 20:54:58;;;;;;;;;;;22.60;99.90;;;;;;12352554;28;20294;-85
2023/08/20 21:01:00;;;;;;;;;;;22.50;99.90;;;;;;12380122;28;19955;-85
2023/08/20 21:07:02;;;;;;;;;;;22.20;99.90;;;;;;12350703;28;19984;-86
2023/08/20 21:13:06;;;;;;;;;;;21.80;99.90;;;;;;12371862;28;19926;-85
2023/08/20 21:19:08;;;;;;;;;;;21.50;99.90;;;;;;12347729;28;19972;-86
2023/08/20 21:25:10;;;;;;;;;;;21.30;99.90;;;;;;12349670;28;19930;-85
2023/08/20 21:31:13;;;;;;;;;;;21.10;99.90;;;;;;12347075;28;19957;-85
2023/08/20 21:37:15;;;;;;;;;;;21.00;99.90;;;;;;12359263;28;19930;-85
2023/08/20 21:43:16;;;;;;;;;;;21.00;99.90;;;;;;12363197;28;19925;-85
2023/08/20 21:49:22;;;;;;;;;;;21.00;99.90;;;;;;12364616;28;19930;-85
2023/08/20 21:55:24;;;;;;;;;;;20.70;99.90;;;;;;12348820;28;19937;-85
2023/08/20 22:01:26;;;;;;;;;;;20.60;99.90;;;;;;12375782;28;19926;-86
2023/08/20 22:07:28;;;;;;;;;;;20.40;99.90;;;;;;12358115;28;19972;-85
2023/08/20 22:13:30;;;;;;;;;;;20.40;99.90;;;;;;12329213;28;20021;-85
2023/08/20 22:19:31;;;;;;;;;;;20.20;99.90;;;;;;12339000;28;19980;-84
2023/08/20 22:25:33;;;;;;;;;;;19.90;99.90;;;;;;12355460;28;20020;-85
2023/08/20 22:31:35;;;;;;;;;;;19.70;99.90;;;;;;12376092;28;20489;-84
2023/08/20 22:37:37;;;;;;;;;;;19.90;99.90;;;;;;12366699;28;20100;-83
2023/08/20 22:43:38;;;;;;;;;;;19.80;99.90;;;;;;12348717;28;20309;-83
2023/08/20 22:49:40;;;;;;;;;;;19.80;99.90;;;;;;12360204;28;19926;-83
2023/08/20 22:55:42;;;;;;;;;;;20.00;99.90;;;;;;12342468;28;19930;-83
2023/08/20 23:01:46;;;;;;;;;;;19.90;99.90;;;;;;12356881;28;20397;-83
2023/08/20 23:07:48;;;;;;;;;;;20.00;99.90;;;;;;12352959;28;19930;-83
2023/08/20 23:13:50;;;;;;;;;;;20.00;99.90;;;;;;12377157;28;20029;-83
2023/08/20 23:19:52;;;;;;;;;;;20.00;99.90;;;;;;12355316;28;19927;-83
2023/08/20 23:25:54;;;;;;;;;;;19.80;99.90;;;;;;12338992;28;19926;-84
2023/08/20 23:31:56;;;;;;;;;;;19.80;99.90;;;;;;12332307;28;20025;-83
2023/08/20 23:37:57;;;;;;;;;;;19.70;99.90;;;;;;12328863;28;20344;-83
2023/08/20 23:43:59;;;;;;;;;;;19.70;99.90;;;;;;12331894;28;19929;-83
2023/08/20 23:50:01;;;;;;;;;;;19.60;99.90;;;;;;12344982;28;19930;-83
2023/08/20 23:56:03;;;;;;;;;;;19.60;99.90;;;;;;12365948;28;19936;-82
